Time;durP1;ratioP1;P1;durP2;ratioP2;P2;SDS_P1;SDS_P2;PMS_P1;PMS_P2;Temp;Humidity;BMP_temperature;BMP_pressure;BME280_temperature;BME280_humidity;BME280_pressure;Samples;Min_cycle;Max_cycle;Signal;HPM_P1;HPM_P2
2022/11/09 00:01:12;;;;;;;;;3.00;2.00;;;;;;;;4937910;28;45456;-61
2022/11/09 00:03:37;;;;;;;;;6.25;1.50;;;;;;;;4938160;28;45561;-61
2022/11/09 00:06:03;;;;;;;;;3.00;3.00;;;;;;;;4937933;28;45496;-61
2022/11/09 00:08:28;;;;;;;;;2.50;1.75;;;;;;;;4938130;28;45271;-61
2022/11/09 00:10:53;;;;;;;;;3.75;2.00;;;;;;;;4937894;28;46405;-61
2022/11/09 00:13:18;;;;;;;;;4.50;2.50;;;;;;;;4930927;28;45353;-61
2022/11/09 00:15:44;;;;;;;;;7.00;2.50;;;;;;;;4918953;28;45467;-61
2022/11/09 00:18:09;;;;;;;;;2.50;2.50;;;;;;;;4918773;28;45396;-61
2022/11/09 00:20:34;;;;;;;;;3.75;1.25;;;;;;;;4902202;28;46444;-61
2022/11/09 00:22:59;;;;;;;;;4.00;2.00;;;;;;;;4931793;28;45304;-61
2022/11/09 00:25:24;;;;;;;;;5.00;1.00;;;;;;;;4959256;28;45259;-62
2022/11/09 00:27:50;;;;;;;;;4.50;2.00;;;;;;;;4959500;28;45432;-62
2022/11/09 00:30:15;;;;;;;;;5.00;2.00;;;;;;;;4970681;28;46634;-62
2022/11/09 00:32:40;;;;;;;;;3.00;1.75;;;;;;;;4977610;28;46303;-61
2022/11/09 00:35:06;;;;;;;;;1.00;1.00;;;;;;;;4978596;28;45228;-61
2022/11/09 00:37:31;;;;;;;;;1.00;1.00;;;;;;;;4978551;28;45401;-62
2022/11/09 00:39:56;;;;;;;;;2.75;2.00;;;;;;;;4978302;28;46542;-61
2022/11/09 00:42:21;;;;;;;;;1.00;1.00;;;;;;;;4978443;28;45229;-61
2022/11/09 00:44:46;;;;;;;;;1.00;1.00;;;;;;;;4978750;28;45462;-62
2022/11/09 00:47:12;;;;;;;;;2.75;2.00;;;;;;;;4977204;28;45418;-62
2022/11/09 00:49:37;;;;;;;;;2.00;1.00;;;;;;;;4978278;28;45925;-61
2022/11/09 00:52:02;;;;;;;;;4.00;3.00;;;;;;;;4978092;28;45309;-61
2022/11/09 00:54:27;;;;;;;;;3.50;0.75;;;;;;;;4978391;28;45520;-61
2022/11/09 00:56:53;;;;;;;;;4.00;2.50;;;;;;;;4977478;28;45450;-61
2022/11/09 00:59:18;;;;;;;;;2.00;0.50;;;;;;;;4978156;28;45553;-61
2022/11/09 01:01:43;;;;;;;;;2.75;1.25;;;;;;;;4978045;28;45356;-61
2022/11/09 01:04:08;;;;;;;;;3.00;1.00;;;;;;;;4977355;28;45388;-61
2022/11/09 01:06:34;;;;;;;;;4.25;1.50;;;;;;;;4978185;28;45227;-61
2022/11/09 01:08:59;;;;;;;;;1.75;1.75;;;;;;;;4977915;28;45999;-61
2022/11/09 01:11:24;;;;;;;;;1.75;1.75;;;;;;;;4977723;28;45343;-61
2022/11/09 01:13:49;;;;;;;;;0.50;0.50;;;;;;;;4978195;28;45371;-61
2022/11/09 01:16:17;;;;;;;;;3.00;0.00;;;;;;;;4978540;28;45383;-61
2022/11/09 01:18:42;;;;;;;;;6.00;1.00;;;;;;;;4977692;28;46330;-61
2022/11/09 01:21:09;;;;;;;;;0.75;0.75;;;;;;;;4976733;28;45409;-61
2022/11/09 01:23:34;;;;;;;;;6.00;1.00;;;;;;;;4977643;28;45427;-61
2022/11/09 01:26:01;;;;;;;;;1.00;0.00;;;;;;;;4960487;28;45526;-61
2022/11/09 01:28:27;;;;;;;;;2.00;0.25;;;;;;;;4977735;28;46514;-61
2022/11/09 01:30:52;;;;;;;;;1.50;1.50;;;;;;;;4977698;28;45422;-62
2022/11/09 01:33:18;;;;;;;;;2.00;0.00;;;;;;;;4976710;28;45343;-61
2022/11/09 01:35:43;;;;;;;;;1.00;1.00;;;;;;;;4977800;28;45438;-61
2022/11/09 01:38:08;;;;;;;;;2.00;2.00;;;;;;;;4977427;28;46388;-61
2022/11/09 01:40:34;;;;;;;;;3.00;0.25;;;;;;;;4977644;28;45413;-61
2022/11/09 01:43:12;;;;;;;;;2.25;1.00;;;;;;;;4977825;28;46137;-61
2022/11/09 01:45:37;;;;;;;;;2.25;1.00;;;;;;;;4976672;28;45317;-61
2022/11/09 01:48:09;;;;;;;;;0.50;0.50;;;;;;;;4977390;28;46240;-61
2022/11/09 01:50:52;;;;;;;;;1.00;1.00;;;;;;;;4977469;28;45437;-61
2022/11/09 01:53:19;;;;;;;;;1.50;1.50;;;;;;;;4977262;28;45484;-61
2022/11/09 01:55:47;;;;;;;;;3.00;1.00;;;;;;;;4977499;28;45251;-61
2022/11/09 01:58:24;;;;;;;;;2.25;1.00;;;;;;;;4977215;28;46279;-61
2022/11/09 02:00:49;;;;;;;;;1.00;1.00;;;;;;;;4977265;28;45454;-61
2022/11/09 02:03:20;;;;;;;;;3.75;1.00;;;;;;;;4976421;28;45536;-61
2022/11/09 02:05:47;;;;;;;;;0.75;0.75;;;;;;;;4977723;28;45318;-61
2022/11/09 02:08:14;;;;;;;;;2.25;0.50;;;;;;;;4979036;28;46560;-61
2022/11/09 02:10:55;;;;;;;;;2.80;1.00;;;;;;;;4980487;28;45236;-61
2022/11/09 02:13:23;;;;;;;;;1.00;1.00;;;;;;;;4980983;28;45365;-61
2022/11/09 02:15:48;;;;;;;;;3.00;0.00;;;;;;;;4959202;28;45414;-61
2022/11/09 02:18:14;;;;;;;;;1.00;1.00;;;;;;;;4961079;28;46317;-61
2022/11/09 02:20:46;;;;;;;;;1.50;1.00;;;;;;;;4960963;28;45399;-61
2022/11/09 02:23:11;;;;;;;;;3.25;0.25;;;;;;;;4961309;28;45518;-62
2022/11/09 02:25:38;;;;;;;;;1.75;0.00;;;;;;;;4961568;28;45359;-61
2022/11/09 02:28:04;;;;;;;;;2.75;2.00;;;;;;;;4960453;28;46640;-61
2022/11/09 02:30:30;;;;;;;;;4.00;1.00;;;;;;;;4965376;28;45254;-61
2022/11/09 02:32:55;;;;;;;;;2.50;1.00;;;;;;;;4980528;28;45244;-61
2022/11/09 02:35:20;;;;;;;;;2.25;1.00;;;;;;;;4980533;28;45404;-61
2022/11/09 02:37:47;;;;;;;;;4.00;0.75;;;;;;;;4980539;28;46532;-61
2022/11/09 02:40:15;;;;;;;;;4.25;1.50;;;;;;;;4980123;28;45401;-61
2022/11/09 02:42:40;;;;;;;;;4.00;1.75;;;;;;;;4980209;28;45383;-61
2022/11/09 02:45:06;;;;;;;;;1.50;1.00;;;;;;;;4980541;28;45365;-61
2022/11/09 02:47:31;;;;;;;;;4.75;2.00;;;;;;;;4978910;28;47330;-61
2022/11/09 02:49:56;;;;;;;;;2.75;2.00;;;;;;;;4980029;28;45623;-61
2022/11/09 02:52:22;;;;;;;;;2.50;1.00;;;;;;;;4980098;28;45411;-61
2022/11/09 02:54:47;;;;;;;;;0.75;0.75;;;;;;;;4980384;28;45457;-61
2022/11/09 02:57:12;;;;;;;;;2.00;2.00;;;;;;;;4979907;28;45306;-61
2022/11/09 02:59:37;;;;;;;;;3.00;1.50;;;;;;;;4979744;28;45220;-61
2022/11/09 03:02:03;;;;;;;;;2.00;1.00;;;;;;;;4980296;28;45357;-61
2022/11/09 03:04:28;;;;;;;;;3.00;1.00;;;;;;;;4978971;28;45315;-61
2022/11/09 03:06:53;;;;;;;;;5.00;2.00;;;;;;;;4979895;28;45582;-61
2022/11/09 03:09:18;;;;;;;;;2.00;1.00;;;;;;;;4979901;28;45280;-61
2022/11/09 03:11:44;;;;;;;;;2.75;2.00;;;;;;;;4979653;28;45473;-61
2022/11/09 03:14:09;;;;;;;;;1.50;1.50;;;;;;;;4978531;28;45451;-61
2022/11/09 03:16:38;;;;;;;;;5.00;2.00;;;;;;;;4979653;28;46712;-61
2022/11/09 03:19:04;;;;;;;;;2.00;1.00;;;;;;;;4978931;28;45362;-61
2022/11/09 03:21:29;;;;;;;;;2.25;1.00;;;;;;;;4978732;28;45402;-61
2022/11/09 03:23:55;;;;;;;;;2.00;2.00;;;;;;;;4979569;28;45417;-61
2022/11/09 03:26:20;;;;;;;;;2.50;1.00;;;;;;;;4979302;28;46544;-61
2022/11/09 03:28:45;;;;;;;;;4.25;2.00;;;;;;;;4979550;28;45331;-61
2022/11/09 03:31:10;;;;;;;;;1.00;1.00;;;;;;;;4979507;28;45421;-61
2022/11/09 03:33:36;;;;;;;;;2.75;2.00;;;;;;;;4979772;28;45760;-61
2022/11/09 03:36:01;;;;;;;;;2.50;1.75;;;;;;;;4979247;28;46453;-61
2022/11/09 03:38:26;;;;;;;;;3.00;1.25;;;;;;;;4978550;28;45338;-61
2022/11/09 03:40:52;;;;;;;;;0.75;0.75;;;;;;;;4979298;28;45347;-61
2022/11/09 03:43:17;;;;;;;;;1.00;1.00;;;;;;;;4979608;28;45481;-61
2022/11/09 03:45:42;;;;;;;;;4.00;1.00;;;;;;;;4979269;28;46544;-61
2022/11/09 03:48:07;;;;;;;;;2.00;1.00;;;;;;;;4979187;28;45241;-61
2022/11/09 03:50:33;;;;;;;;;2.00;2.00;;;;;;;;4979457;28;45226;-61
2022/11/09 03:52:59;;;;;;;;;3.00;1.00;;;;;;;;4979219;28;45391;-61
2022/11/09 03:55:24;;;;;;;;;2.00;2.00;;;;;;;;4977979;28;46125;-61
2022/11/09 03:57:50;;;;;;;;;4.75;1.75;;;;;;;;4978746;28;45232;-61
2022/11/09 04:00:16;;;;;;;;;3.00;2.00;;;;;;;;4979113;28;45214;-61
2022/11/09 04:02:42;;;;;;;;;5.00;3.00;;;;;;;;4979213;28;45363;-61
2022/11/09 04:05:07;;;;;;;;;4.75;2.00;;;;;;;;4978912;28;45319;-61
2022/11/09 04:07:32;;;;;;;;;1.00;1.00;;;;;;;;4978766;28;45231;-61
2022/11/09 04:09:57;;;;;;;;;1.25;1.00;;;;;;;;4977912;28;45509;-61
2022/11/09 04:12:23;;;;;;;;;3.50;3.00;;;;;;;;4978943;28;45414;-61
2022/11/09 04:14:48;;;;;;;;;4.25;2.50;;;;;;;;4978939;28;46304;-61
2022/11/09 04:17:13;;;;;;;;;4.75;1.00;;;;;;;;4978875;28;45345;-61
2022/11/09 04:19:39;;;;;;;;;4.25;2.25;;;;;;;;4978763;28;45319;-61
2022/11/09 04:22:04;;;;;;;;;1.25;1.00;;;;;;;;4978954;28;45355;-61
2022/11/09 04:24:29;;;;;;;;;6.50;2.00;;;;;;;;4978508;28;46224;-61
2022/11/09 04:26:54;;;;;;;;;2.50;1.00;;;;;;;;4977834;28;45251;-61
2022/11/09 04:29:20;;;;;;;;;3.75;2.25;;;;;;;;4978450;28;45777;-61
2022/11/09 04:31:47;;;;;;;;;4.50;2.00;;;;;;;;4977889;28;45362;-61
2022/11/09 04:34:12;;;;;;;;;4.50;2.00;;;;;;;;4978655;28;46658;-61
2022/11/09 04:36:37;;;;;;;;;4.25;1.00;;;;;;;;4978238;28;45404;-61
2022/11/09 04:39:02;;;;;;;;;2.75;1.00;;;;;;;;4978692;28;45202;-61
2022/11/09 04:41:28;;;;;;;;;2.00;2.00;;;;;;;;4978811;28;45272;-61
2022/11/09 04:43:53;;;;;;;;;2.50;2.00;;;;;;;;4977405;28;45469;-60
2022/11/09 04:46:18;;;;;;;;;2.50;2.00;;;;;;;;4978506;28;45454;-61
2022/11/09 04:48:43;;;;;;;;;9.00;7.00;;;;;;;;4978329;28;45319;-61
2022/11/09 04:51:12;;;;;;;;;6.25;1.25;;;;;;;;4978576;28;45255;-61
2022/11/09 04:53:37;;;;;;;;;2.75;2.00;;;;;;;;4978211;28;45573;-61
2022/11/09 04:56:03;;;;;;;;;5.00;2.00;;;;;;;;4978164;28;45355;-61
2022/11/09 04:58:29;;;;;;;;;2.25;1.00;;;;;;;;4977970;28;45310;-61
2022/11/09 05:01:00;;;;;;;;;2.75;1.75;;;;;;;;4977056;28;45355;-61
2022/11/09 05:03:25;;;;;;;;;1.00;1.00;;;;;;;;4978238;28;45444;-61
2022/11/09 05:05:50;;;;;;;;;1.25;1.00;;;;;;;;4978012;28;45225;-61
2022/11/09 05:08:15;;;;;;;;;2.50;1.00;;;;;;;;4978016;28;45325;-61
2022/11/09 05:10:40;;;;;;;;;2.75;2.75;;;;;;;;4978282;28;45430;-61
2022/11/09 05:13:07;;;;;;;;;5.25;1.75;;;;;;;;4977582;28;46186;-61
2022/11/09 05:15:32;;;;;;;;;3.00;1.00;;;;;;;;4978170;28;45215;-60
2022/11/09 05:17:58;;;;;;;;;6.75;1.25;;;;;;;;4977126;28;45343;-61
2022/11/09 05:20:23;;;;;;;;;3.25;1.00;;;;;;;;4977795;28;45419;-60
2022/11/09 05:25:32;;;;;;;;;3.00;1.75;;;;;;;;4977921;28;45330;-61
2022/11/09 05:27:58;;;;;;;;;4.75;1.00;;;;;;;;4977835;28;45380;-61
2022/11/09 05:30:23;;;;;;;;;2.25;2.25;;;;;;;;4978101;28;45342;-61
2022/11/09 05:32:48;;;;;;;;;1.00;1.00;;;;;;;;4977492;28;45406;-61
2022/11/09 05:35:14;;;;;;;;;3.00;1.75;;;;;;;;4976427;28;45347;-61
2022/11/09 05:37:39;;;;;;;;;2.50;1.00;;;;;;;;4977949;28;45462;-61
2022/11/09 05:40:05;;;;;;;;;7.75;5.00;;;;;;;;4977526;28;45724;-61
2022/11/09 05:42:30;;;;;;;;;3.00;2.00;;;;;;;;4977333;28;46414;-61
2022/11/09 05:44:56;;;;;;;;;3.00;2.00;;;;;;;;4981174;28;45573;-61
2022/11/09 05:47:21;;;;;;;;;2.75;2.00;;;;;;;;4981050;28;45401;-61
2022/11/09 05:49:46;;;;;;;;;2.00;2.00;;;;;;;;4981278;28;45584;-61
2022/11/09 05:52:12;;;;;;;;;5.25;2.00;;;;;;;;4980900;28;46762;-61
2022/11/09 05:54:37;;;;;;;;;6.50;3.00;;;;;;;;4981050;28;45307;-61
2022/11/09 05:57:02;;;;;;;;;8.25;4.75;;;;;;;;4981179;28;45221;-62
2022/11/09 05:59:27;;;;;;;;;2.25;2.00;;;;;;;;4980065;28;45378;-62
2022/11/09 06:01:53;;;;;;;;;8.00;3.00;;;;;;;;4980417;28;46357;-62
2022/11/09 06:04:18;;;;;;;;;6.50;2.50;;;;;;;;4980891;28;45216;-62
2022/11/09 06:06:43;;;;;;;;;1.25;1.25;;;;;;;;4981151;28;45422;-62
2022/11/09 06:09:08;;;;;;;;;3.75;2.00;;;;;;;;4980911;28;45288;-62
2022/11/09 06:11:34;;;;;;;;;4.00;2.50;;;;;;;;4980298;28;46084;-62
2022/11/09 06:13:59;;;;;;;;;1.50;1.00;;;;;;;;4979403;28;45383;-62
2022/11/09 06:16:24;;;;;;;;;1.75;1.00;;;;;;;;4980668;28;45389;-62
2022/11/09 06:18:49;;;;;;;;;3.00;2.00;;;;;;;;4981035;28;45229;-62
2022/11/09 06:21:14;;;;;;;;;4.50;3.00;;;;;;;;4980281;28;46307;-62
2022/11/09 06:23:40;;;;;;;;;3.00;3.00;;;;;;;;4980704;28;45239;-62
2022/11/09 06:26:06;;;;;;;;;3.00;2.00;;;;;;;;4980534;28;45231;-61
2022/11/09 06:28:32;;;;;;;;;5.00;3.00;;;;;;;;4979538;28;45160;-61
2022/11/09 06:30:58;;;;;;;;;2.25;1.75;;;;;;;;4980353;28;45640;-62
2022/11/09 06:33:23;;;;;;;;;6.50;5.75;;;;;;;;4980069;28;45361;-61
2022/11/09 06:35:48;;;;;;;;;2.75;2.75;;;;;;;;4980524;28;45910;-61
2022/11/09 06:38:14;;;;;;;;;7.00;4.00;;;;;;;;4980560;28;45780;-62
2022/11/09 06:40:39;;;;;;;;;2.00;2.00;;;;;;;;4980166;28;45421;-62
2022/11/09 06:43:04;;;;;;;;;3.25;2.00;;;;;;;;4980206;28;45811;-62
2022/11/09 06:45:30;;;;;;;;;9.00;7.75;;;;;;;;4978757;28;45382;-62
2022/11/09 06:47:56;;;;;;;;;4.00;2.00;;;;;;;;4980648;28;45352;-61
2022/11/09 06:50:21;;;;;;;;;5.00;2.00;;;;;;;;4980041;28;45395;-61
2022/11/09 06:52:46;;;;;;;;;4.00;1.75;;;;;;;;4979377;28;45597;-62
2022/11/09 06:55:12;;;;;;;;;2.75;1.25;;;;;;;;4979407;28;45375;-62
2022/11/09 06:57:37;;;;;;;;;2.00;1.00;;;;;;;;4980135;28;45492;-62
2022/11/09 07:00:03;;;;;;;;;1.00;0.00;;;;;;;;4979686;28;45390;-62
2022/11/09 07:02:28;;;;;;;;;3.75;1.50;;;;;;;;4978442;28;45517;-62
2022/11/09 07:04:54;;;;;;;;;1.75;0.75;;;;;;;;4980135;28;45349;-61
2022/11/09 07:07:19;;;;;;;;;10.25;3.00;;;;;;;;4980131;28;45220;-62
2022/11/09 07:09:44;;;;;;;;;2.50;2.50;;;;;;;;4979671;28;45604;-62
2022/11/09 07:12:09;;;;;;;;;1.00;1.00;;;;;;;;4979667;28;45366;-61
2022/11/09 07:14:35;;;;;;;;;7.50;4.50;;;;;;;;4979656;28;45784;-62
2022/11/09 07:17:00;;;;;;;;;10.75;4.00;;;;;;;;4979981;28;45203;-62
2022/11/09 07:19:27;;;;;;;;;4.75;3.00;;;;;;;;4979383;28;45357;-62
2022/11/09 07:21:52;;;;;;;;;4.25;2.00;;;;;;;;4977992;28;45399;-62
2022/11/09 07:24:17;;;;;;;;;8.50;3.75;;;;;;;;4979933;28;45442;-61
2022/11/09 07:26:43;;;;;;;;;7.75;3.00;;;;;;;;4979923;28;45357;-62
2022/11/09 07:29:08;;;;;;;;;5.25;3.50;;;;;;;;4978661;28;46191;-62
2022/11/09 07:31:33;;;;;;;;;5.00;1.25;;;;;;;;4978144;28;45431;-62
2022/11/09 07:34:03;;;;;;;;;3.00;1.00;;;;;;;;4979328;28;45441;-62
2022/11/09 07:36:28;;;;;;;;;1.00;1.00;;;;;;;;4979798;28;45506;-62
2022/11/09 07:38:53;;;;;;;;;5.25;0.50;;;;;;;;4979361;28;46003;-62
2022/11/09 07:41:19;;;;;;;;;3.75;1.00;;;;;;;;4979435;28;45402;-62
2022/11/09 07:43:44;;;;;;;;;2.00;0.00;;;;;;;;4979281;28;45211;-62
2022/11/09 07:46:09;;;;;;;;;3.00;1.75;;;;;;;;4979536;28;45419;-62
2022/11/09 07:48:34;;;;;;;;;1.50;1.50;;;;;;;;4977974;28;45403;-62
2022/11/09 07:51:00;;;;;;;;;3.00;1.00;;;;;;;;4979036;28;45244;-62
2022/11/09 07:53:25;;;;;;;;;2.00;1.00;;;;;;;;4979022;28;45306;-61
2022/11/09 07:55:57;;;;;;;;;2.75;1.00;;;;;;;;4978324;28;45671;-61
2022/11/09 07:58:23;;;;;;;;;4.00;1.00;;;;;;;;4978634;28;47413;-61
2022/11/09 08:00:48;;;;;;;;;1.00;1.00;;;;;;;;4984035;28;45459;-61
2022/11/09 08:03:13;;;;;;;;;1.00;1.00;;;;;;;;4977277;28;45379;-61
2022/11/09 08:05:39;;;;;;;;;3.25;1.00;;;;;;;;4979044;28;45150;-61
2022/11/09 08:08:05;;;;;;;;;1.50;1.00;;;;;;;;4991367;28;46148;-61
2022/11/09 08:10:31;;;;;;;;;2.00;1.00;;;;;;;;4998233;28;45479;-61
2022/11/09 08:12:57;;;;;;;;;4.25;1.00;;;;;;;;4998593;28;45324;-61
2022/11/09 08:15:23;;;;;;;;;2.75;1.00;;;;;;;;4978328;28;45577;-61
2022/11/09 08:17:48;;;;;;;;;5.25;1.00;;;;;;;;4977940;28;46164;-61
2022/11/09 08:20:15;;;;;;;;;1.50;1.50;;;;;;;;4977099;28;45470;-62
2022/11/09 08:22:44;;;;;;;;;5.75;2.75;;;;;;;;4978320;28;45377;-61
2022/11/09 08:25:09;;;;;;;;;4.00;3.00;;;;;;;;4978633;28;45530;-61
2022/11/09 08:27:38;;;;;;;;;2.00;2.00;;;;;;;;4978556;28;46325;-61
2022/11/09 08:30:04;;;;;;;;;3.75;2.25;;;;;;;;4978259;28;45483;-61
2022/11/09 08:32:30;;;;;;;;;4.50;1.25;;;;;;;;4978141;28;45610;-61
2022/11/09 08:34:55;;;;;;;;;2.25;1.00;;;;;;;;4977531;28;45458;-61
2022/11/09 08:37:20;;;;;;;;;7.50;1.00;;;;;;;;4978369;28;45656;-61
2022/11/09 08:39:45;;;;;;;;;7.75;3.75;;;;;;;;4978112;28;45374;-61
2022/11/09 08:42:10;;;;;;;;;3.50;1.75;;;;;;;;4978321;28;45378;-61
2022/11/09 08:44:36;;;;;;;;;3.00;1.00;;;;;;;;4975176;28;45370;-61
2022/11/09 08:47:01;;;;;;;;;5.50;3.00;;;;;;;;4977487;28;47308;-61
2022/11/09 08:49:26;;;;;;;;;1.75;1.25;;;;;;;;4976599;28;45397;-61
2022/11/09 08:51:51;;;;;;;;;2.00;0.75;;;;;;;;4974524;28;45418;-61
2022/11/09 08:54:17;;;;;;;;;5.25;2.75;;;;;;;;4977941;28;45662;-61
2022/11/09 08:56:42;;;;;;;;;4.50;4.50;;;;;;;;4977746;28;46434;-61
2022/11/09 08:59:07;;;;;;;;;2.00;2.00;;;;;;;;4977800;28;45367;-61
2022/11/09 09:01:33;;;;;;;;;5.25;2.00;;;;;;;;4977937;28;45346;-61
2022/11/09 09:03:58;;;;;;;;;4.00;2.00;;;;;;;;4978137;28;45475;-61
2022/11/09 09:06:23;;;;;;;;;3.50;1.25;;;;;;;;4977809;28;46191;-61
2022/11/09 09:08:48;;;;;;;;;3.25;2.00;;;;;;;;4976333;28;45389;-61
2022/11/09 09:11:15;;;;;;;;;2.00;2.00;;;;;;;;4959811;28;45280;-61
2022/11/09 09:13:40;;;;;;;;;4.00;2.00;;;;;;;;4977925;28;45447;-61
2022/11/09 09:16:09;;;;;;;;;2.00;1.75;;;;;;;;4977004;28;46234;-61
2022/11/09 09:18:35;;;;;;;;;1.25;1.25;;;;;;;;4977125;28;45370;-61
2022/11/09 09:21:00;;;;;;;;;7.75;2.00;;;;;;;;4977258;28;45418;-61
2022/11/09 09:23:25;;;;;;;;;12.00;12.00;;;;;;;;4975858;28;45430;-61
2022/11/09 09:25:50;;;;;;;;;1.25;1.25;;;;;;;;4974807;28;46350;-61
2022/11/09 09:28:15;;;;;;;;;4.00;2.50;;;;;;;;4975942;28;45394;-61
2022/11/09 09:30:41;;;;;;;;;4.00;1.00;;;;;;;;4978455;28;45448;-61
2022/11/09 09:33:06;;;;;;;;;2.75;0.50;;;;;;;;4975999;28;45401;-61
2022/11/09 09:35:31;;;;;;;;;5.00;2.00;;;;;;;;4975507;28;46627;-61
2022/11/09 09:37:57;;;;;;;;;5.25;2.00;;;;;;;;4975692;28;45406;-61
2022/11/09 09:40:30;;;;;;;;;4.00;1.75;;;;;;;;4976073;28;45794;-61
2022/11/09 09:42:56;;;;;;;;;2.00;2.00;;;;;;;;4975694;28;45483;-61
2022/11/09 09:45:24;;;;;;;;;1.25;1.00;;;;;;;;4975366;28;45568;-61
2022/11/09 09:47:58;;;;;;;;;3.25;1.50;;;;;;;;4974304;28;46342;-61
2022/11/09 09:50:25;;;;;;;;;2.50;2.00;;;;;;;;4973638;28;45416;-61
2022/11/09 09:53:02;;;;;;;;;3.75;1.00;;;;;;;;4976247;28;45470;-61
2022/11/09 09:55:30;;;;;;;;;3.50;2.00;;;;;;;;4975204;28;46398;-61
2022/11/09 09:58:03;;;;;;;;;4.00;2.00;;;;;;;;4971299;28;46423;-61
2022/11/09 10:00:30;;;;;;;;;2.50;2.00;;;;;;;;4976849;28;45482;-61
2022/11/09 10:02:55;;;;;;;;;4.00;2.00;;;;;;;;4975728;28;45393;-61
2022/11/09 10:05:27;;;;;;;;;2.25;1.00;;;;;;;;4973393;28;47537;-61
2022/11/09 10:07:58;;;;;;;;;2.50;0.75;;;;;;;;4975443;28;45536;-61
2022/11/09 10:10:30;;;;;;;;;4.50;2.50;;;;;;;;4971998;28;45458;-61
2022/11/09 10:13:14;;;;;;;;;1.00;1.00;;;;;;;;4975568;28;45560;-62
2022/11/09 10:15:45;;;;;;;;;2.25;1.00;;;;;;;;4972293;28;45421;-61
2022/11/09 10:18:13;;;;;;;;;3.75;2.00;;;;;;;;4975324;28;45489;-61
2022/11/09 10:20:56;;;;;;;;;3.00;1.50;;;;;;;;4976312;28;45300;-62
2022/11/09 10:23:21;;;;;;;;;2.00;2.00;;;;;;;;4969741;28;45564;-61
2022/11/09 10:25:51;;;;;;;;;5.75;5.00;;;;;;;;4975437;28;45573;-61
2022/11/09 10:28:16;;;;;;;;;7.00;2.00;;;;;;;;4972546;28;45659;-61
2022/11/09 10:30:41;;;;;;;;;1.00;1.00;;;;;;;;4974961;28;45417;-61
2022/11/09 10:33:10;;;;;;;;;1.25;1.00;;;;;;;;4963632;28;45531;-62
2022/11/09 10:35:53;;;;;;;;;0.00;0.00;;;;;;;;4972461;28;45402;-62
2022/11/09 10:38:28;;;;;;;;;0.00;0.00;;;;;;;;4964293;28;45450;-62
2022/11/09 10:40:57;;;;;;;;;0.00;0.00;;;;;;;;4979406;28;45371;-62
2022/11/09 10:43:23;;;;;;;;;2.00;0.00;;;;;;;;4978873;28;45452;-62
2022/11/09 10:45:56;;;;;;;;;0.75;0.00;;;;;;;;4978391;28;45641;-62
2022/11/09 10:48:29;;;;;;;;;0.00;0.00;;;;;;;;4966287;28;45477;-62
2022/11/09 10:50:55;;;;;;;;;1.25;1.00;;;;;;;;4979063;28;45476;-62
2022/11/09 10:53:21;;;;;;;;;2.00;2.00;;;;;;;;4982927;28;45497;-62
2022/11/09 10:55:52;;;;;;;;;1.00;1.00;;;;;;;;4987545;28;47121;-62
2022/11/09 10:58:23;;;;;;;;;4.00;2.00;;;;;;;;4981623;28;45497;-62
2022/11/09 11:01:00;;;;;;;;;3.50;1.00;;;;;;;;4977950;28;45526;-62
2022/11/09 11:03:26;;;;;;;;;2.50;2.00;;;;;;;;4978714;28;45503;-62
2022/11/09 11:05:57;;;;;;;;;1.50;1.50;;;;;;;;4978803;28;46586;-62
2022/11/09 11:08:42;;;;;;;;;3.00;3.00;;;;;;;;4978812;28;45579;-62
2022/11/09 11:11:27;;;;;;;;;3.00;1.00;;;;;;;;4978006;28;45334;-62
2022/11/09 11:14:12;;;;;;;;;0.50;0.50;;;;;;;;4979365;28;45267;-62
2022/11/09 11:16:38;;;;;;;;;0.25;0.25;;;;;;;;4977952;28;45770;-61
2022/11/09 11:19:03;;;;;;;;;1.00;1.00;;;;;;;;4978535;28;45441;-61
2022/11/09 11:21:29;;;;;;;;;3.00;1.50;;;;;;;;4978555;28;45375;-61
2022/11/09 11:24:13;;;;;;;;;15.33;13.33;;;;;;;;4978149;28;45366;-62
2022/11/09 11:26:38;;;;;;;;;7.00;5.00;;;;;;;;4977550;28;45679;-62
2022/11/09 11:29:10;;;;;;;;;3.00;1.00;;;;;;;;4977264;28;45530;-61
2022/11/09 11:31:35;;;;;;;;;1.25;0.00;;;;;;;;4978430;28;45495;-61
2022/11/09 11:34:01;;;;;;;;;1.00;0.00;;;;;;;;4978154;28;45387;-62
2022/11/09 11:36:39;;;;;;;;;1.00;0.00;;;;;;;;4977043;28;45725;-61
2022/11/09 11:39:23;;;;;;;;;0.75;0.75;;;;;;;;4977952;28;45750;-61
2022/11/09 11:42:16;;;;;;;;;3.00;2.00;;;;;;;;4958764;28;45442;-62
2022/11/09 11:45:00;;;;;;;;;3.50;2.75;;;;;;;;4959301;28;45327;-61
2022/11/09 11:47:32;;;;;;;;;2.50;1.00;;;;;;;;4958648;28;46544;-61
2022/11/09 11:50:10;;;;;;;;;1.25;1.25;;;;;;;;4958834;28;45429;-61
2022/11/09 11:52:35;;;;;;;;;3.00;1.50;;;;;;;;4958815;28;45346;-61
2022/11/09 11:55:18;;;;;;;;;2.25;1.00;;;;;;;;4959152;28;45437;-62
2022/11/09 11:58:05;;;;;;;;;2.50;1.00;;;;;;;;4958483;28;45547;-61
2022/11/09 12:00:36;;;;;;;;;3.50;1.50;;;;;;;;4958281;28;45402;-62
2022/11/09 12:03:08;;;;;;;;;4.75;2.25;;;;;;;;4958639;28;45367;-62
2022/11/09 12:05:36;;;;;;;;;5.25;5.25;;;;;;;;4958795;28;45375;-62
2022/11/09 12:08:07;;;;;;;;;2.00;1.00;;;;;;;;4958447;28;46621;-62
2022/11/09 12:10:50;;;;;;;;;1.00;1.00;;;;;;;;4958889;28;45455;-62
2022/11/09 12:13:30;;;;;;;;;5.25;2.00;;;;;;;;4958518;28;45411;-62
2022/11/09 12:16:03;;;;;;;;;0.50;0.50;;;;;;;;4958773;28;45387;-62
2022/11/09 12:18:38;;;;;;;;;6.00;1.50;;;;;;;;4958242;28;45716;-61
2022/11/09 12:21:14;;;;;;;;;3.00;1.50;;;;;;;;4958171;28;45447;-61
2022/11/09 12:23:40;;;;;;;;;2.50;1.25;;;;;;;;4958614;28;45462;-61
2022/11/09 12:26:12;;;;;;;;;3.00;2.00;;;;;;;;4958486;28;45406;-61
2022/11/09 12:28:40;;;;;;;;;4.75;3.00;;;;;;;;4958684;28;45718;-61
2022/11/09 12:31:20;;;;;;;;;1.00;1.00;;;;;;;;4958596;28;45481;-61
2022/11/09 12:33:48;;;;;;;;;5.75;5.75;;;;;;;;4958564;28;45390;-62
2022/11/09 12:36:22;;;;;;;;;1.00;1.00;;;;;;;;4958610;28;45689;-62
2022/11/09 12:39:10;;;;;;;;;1.00;1.00;;;;;;;;4958769;28;45587;-62
2022/11/09 12:41:37;;;;;;;;;4.00;2.25;;;;;;;;4918021;28;45541;-63
2022/11/09 12:44:02;;;;;;;;;2.25;0.25;;;;;;;;4918332;28;45522;-62
2022/11/09 12:46:32;;;;;;;;;2.00;1.00;;;;;;;;4918600;28;45520;-62
2022/11/09 12:48:59;;;;;;;;;1.50;1.50;;;;;;;;4918080;28;46429;-62
2022/11/09 12:51:24;;;;;;;;;3.00;2.00;;;;;;;;4917433;28;45559;-62
2022/11/09 12:53:49;;;;;;;;;2.75;1.25;;;;;;;;4917918;28;45441;-62
2022/11/09 12:56:16;;;;;;;;;5.00;1.50;;;;;;;;4918506;28;45596;-62
2022/11/09 12:58:41;;;;;;;;;3.50;1.00;;;;;;;;4918310;28;45537;-62
2022/11/09 13:01:10;;;;;;;;;1.50;1.00;;;;;;;;4917879;28;45481;-62
2022/11/09 13:03:37;;;;;;;;;2.75;2.00;;;;;;;;4929424;28;45548;-62
2022/11/09 13:06:08;;;;;;;;;5.00;2.00;;;;;;;;4936673;28;45431;-62
2022/11/09 13:08:34;;;;;;;;;3.25;2.50;;;;;;;;4935925;28;45477;-61
2022/11/09 13:11:17;;;;;;;;;3.00;2.00;;;;;;;;4936801;28;45732;-61
2022/11/09 13:13:42;;;;;;;;;3.50;2.00;;;;;;;;4937200;28;45316;-61
2022/11/09 13:16:28;;;;;;;;;3.00;3.00;;;;;;;;4936088;28;45485;-61
2022/11/09 13:18:53;;;;;;;;;3.50;2.00;;;;;;;;4951258;28;46434;-62
2022/11/09 13:21:22;;;;;;;;;1.50;1.50;;;;;;;;4977575;28;45359;-61
2022/11/09 13:23:54;;;;;;;;;3.00;1.50;;;;;;;;4977971;28;45485;-61
2022/11/09 13:26:22;;;;;;;;;6.00;1.25;;;;;;;;4977575;28;45705;-61
2022/11/09 13:29:06;;;;;;;;;1.25;1.25;;;;;;;;4977427;28;45325;-60
2022/11/09 13:31:57;;;;;;;;;1.75;1.00;;;;;;;;4977328;28;45281;-60
2022/11/09 13:34:41;;;;;;;;;1.00;1.00;;;;;;;;4969167;28;45442;-60
2022/11/09 13:37:25;;;;;;;;;5.50;4.00;;;;;;;;4978017;28;45302;-60
2022/11/09 13:39:51;;;;;;;;;5.25;3.75;;;;;;;;4977674;28;45628;-60
2022/11/09 13:42:29;;;;;;;;;5.75;2.75;;;;;;;;4977432;28;45315;-60
2022/11/09 13:45:14;;;;;;;;;6.00;6.00;;;;;;;;4977729;28;45429;-60
2022/11/09 13:47:48;;;;;;;;;2.50;1.50;;;;;;;;4977473;28;45496;-62
2022/11/09 13:50:18;;;;;;;;;5.00;0.00;;;;;;;;4977421;28;45516;-62
2022/11/09 13:52:50;;;;;;;;;3.00;2.00;;;;;;;;4977263;28;45342;-62
2022/11/09 13:55:28;;;;;;;;;1.25;0.50;;;;;;;;4977692;28;45441;-62
2022/11/09 13:57:54;;;;;;;;;1.25;0.00;;;;;;;;4977680;28;45400;-62
2022/11/09 14:00:23;;;;;;;;;6.00;6.00;;;;;;;;4977078;28;45430;-62
2022/11/09 14:03:01;;;;;;;;;1.50;1.00;;;;;;;;4959425;28;45262;-62
2022/11/09 14:05:38;;;;;;;;;2.75;1.00;;;;;;;;4980824;28;45554;-62
2022/11/09 14:08:03;;;;;;;;;2.25;1.00;;;;;;;;4980951;28;45565;-62
2022/11/09 14:10:49;;;;;;;;;2.25;1.75;;;;;;;;4979982;28;45669;-62
2022/11/09 14:13:29;;;;;;;;;1.00;0.00;;;;;;;;4979925;28;45713;-61
2022/11/09 14:16:13;;;;;;;;;3.50;2.00;;;;;;;;4980506;28;45446;-61
2022/11/09 14:18:45;;;;;;;;;0.00;0.00;;;;;;;;4979489;28;45400;-62
2022/11/09 14:21:40;;;;;;;;;1.50;1.00;;;;;;;;4980215;28;46042;-62
2022/11/09 14:24:14;;;;;;;;;6.00;3.00;;;;;;;;4958468;28;45422;-62
2022/11/09 14:26:57;;;;;;;;;6.75;3.50;;;;;;;;4958886;28;45478;-62
2022/11/09 14:29:23;;;;;;;;;1.00;1.00;;;;;;;;4958952;28;45434;-62
2022/11/09 14:31:48;;;;;;;;;1.00;1.00;;;;;;;;4958518;28;46099;-62
2022/11/09 14:34:14;;;;;;;;;3.50;0.50;;;;;;;;4958200;28;45333;-62
2022/11/09 14:36:40;;;;;;;;;3.50;2.00;;;;;;;;4958946;28;45330;-62
2022/11/09 14:39:15;;;;;;;;;1.50;1.50;;;;;;;;4958796;28;45384;-62
2022/11/09 14:41:42;;;;;;;;;3.50;1.00;;;;;;;;4957406;28;45542;-61
2022/11/09 14:44:14;;;;;;;;;2.25;0.00;;;;;;;;4958404;28;45289;-61
2022/11/09 14:46:39;;;;;;;;;3.00;1.00;;;;;;;;4958406;28;45550;-61
2022/11/09 14:49:05;;;;;;;;;0.00;0.00;;;;;;;;4958469;28;45286;-62
2022/11/09 14:51:37;;;;;;;;;21.33;20.00;;;;;;;;4941441;28;45654;-61